Informes de METAR cercanos

 

LEXJ - Santander/Parayas, Spain
Distance from station: ESE 6km
Actualización: 16/12/2017 19:00
Muy nuboso
Muy nuboso
 Viento del SO
Viento: SO 11 km/h
Temperatura: 8°C
Wind Chill: 6°C
Rocío: 6°C
Humedad: 87%
Barómetro: 1028 hPa
Clouds: Muy nuboso
Visibility: 10 km
Cloud details: Few Clouds 1280 m
Muy nuboso 1798 m
2017/12/16 18:00 LEXJ 161800Z 23006KT 190V260 9999 FEW042TCU BKN059 08/06 Q1028
LEBB - Bilbao/Sondica, Spain
Distance from station: ESE 80km
Actualización: 16/12/2017 19:00
Lluvia débil, Parcialmente nuboso
Lluvia débil, Parcialmente nuboso
 Viento del NE
Viento: NE 15 km/h
Temperatura: 8°C
Wind Chill: 5°C
Rocío: 5°C
Humedad: 82%
Barómetro: 1027 hPa
Resumen: Lluvia débil
Clouds: Parcialmente nuboso
Visibility: 10 km
Cloud details: Few Clouds 1158 m
Parcialmente nuboso 1585 m
2017/12/16 18:00 LEBB 161800Z 04008KT 9999 -RA FEW038 SCT052 08/05 Q1027 TEMPO RA
 
LEBL - Barcelona Airpor, Spain
Distance from station: ESE 726km
Actualización: 16/12/2017 19:00
Despejado
Despejado
 Viento del NNO
Viento: NNO 17 km/h
Temperatura: 11°C
Rocío: 0°C
Humedad: 47%
Barómetro: 1018 hPa
Resumen: Despejado
Visibility: greater than 10 km
2017/12/16 18:00 LEBL 161800Z 34009KT CAVOK 11/M00 Q1018 NOSIG
LEMD - Madrid/Barajas, Spain
Distance from station: S 325km
Actualización: 16/12/2017 19:00
Despejado
Despejado
 Viento del N
Viento: N 17 km/h
Temperatura: 6°C
Wind Chill: 3°C
Rocío: -2°C
Humedad: 57%
Barómetro: 1023 hPa
Resumen: Despejado
Visibility: greater than 10 km
2017/12/16 18:00 LEMD 161800Z 36009KT CAVOK 06/M02 Q1023 NOSIG
 
LPPT - Lisbon/Portela, Portugal
Distance from station: SO 663km
Actualización: 16/12/2017 19:00
Few Clouds
Few Clouds
 Viento del NNO
Viento: NNO 20 km/h
Temperatura: 11°C
Rocío: 3°C
Humedad: 58%
Barómetro: 1025 hPa
Clouds: Few Clouds
Visibility: 10 km
Cloud details: Few Clouds 914 m
2017/12/16 18:00 LPPT 161800Z 34011KT 9999 FEW030 11/03 Q1025
LECO - La Coruna/Alvedr, Spain
Distance from station: O 349km
Actualización: 16/12/2017 19:00
Parcialmente nuboso
Parcialmente nuboso
 Viento del varies
Viento: varies 2 km/h
Temperatura: 9°C
Rocío: 5°C
Humedad: 76%
Barómetro: 1029 hPa
Clouds: Parcialmente nuboso
Visibility: 10 km
Cloud details: Parcialmente nuboso 1341 m
2017/12/16 18:00 LECO 161800Z VRB01KT 9999 SCT044 09/05 Q1029 NOSIG
 
LEST - Santiago/Labacol, Spain
Distance from station: O 358km
Actualización: 16/12/2017 19:00
Few Clouds
Few Clouds
 Viento del NNE
Viento: NNE 7 km/h
Temperatura: 6°C
Wind Chill: 4°C
Rocío: 4°C
Humedad: 87%
Barómetro: 1029 hPa
Clouds: Few Clouds
Visibility: 10 km
Cloud details: Few Clouds 610 m
2017/12/16 18:00 LEST 161800Z 03004KT 9999 FEW020 06/04 Q1029 NOSIG
EBBR - Brussels International Airport, Belgium
Distance from station: O 1339km
Actualización: 16/12/2017 19:20
Parcialmente nuboso
Parcialmente nuboso
 Viento del O
Viento: O 19 km/h
Temperatura: 3°C
Wind Chill: -2°C
Rocío: 1°C
Humedad: 87%
Barómetro: 1017 hPa
Clouds: Parcialmente nuboso
Visibility: 10 km
Cloud details: Parcialmente nuboso 792 m
2017/12/16 18:20 EBBR 161820Z 27010KT 9999 SCT026 03/01 Q1017 NOSIG